Time;durP1;ratioP1;P1;durP2;ratioP2;P2;SDS_P1;SDS_P2;PMS_P1;PMS_P2;Temp;Humidity;BMP_temperature;BMP_pressure;BME280_temperature;BME280_humidity;BME280_pressure;Samples;Min_cycle;Max_cycle;Signal;HPM_P1;HPM_P2
2022/02/13 00:00:56;;;;;;;6.95;2.50;;;;;;;0.76;78.59;100923.06;5078205;28;20028;-82
2022/02/13 00:03:22;;;;;;;9.02;2.83;;;;;;;0.60;78.52;100889.00;5071469;28;20016;-82
2022/02/13 00:05:49;;;;;;;;;;;;;;;0.68;78.78;100896.44;5071948;28;20032;-81
2022/02/13 00:08:14;;;;;;;7.82;2.40;;;;;;;0.62;78.54;100886.28;5071735;28;19912;-82
2022/02/13 00:10:40;;;;;;;8.43;2.25;;;;;;;0.64;78.38;100884.41;5074457;28;20187;-82
2022/02/13 00:13:05;;;;;;;9.23;2.40;;;;;;;0.66;78.38;100893.03;5080284;28;20039;-80
2022/02/13 00:15:31;;;;;;;6.20;2.22;;;;;;;0.48;78.48;100854.78;5101246;28;20043;-82
2022/02/13 00:17:56;;;;;;;11.70;3.20;;;;;;;0.57;78.52;100867.34;5097649;28;20111;-83
2022/02/13 00:20:22;;;;;;;7.47;2.72;;;;;;;0.58;78.69;100879.53;5085853;28;20419;-82
2022/02/13 00:22:48;;;;;;;10.63;2.80;;;;;;;0.61;78.81;100897.75;5075394;28;20074;-82
2022/02/13 00:25:13;;;;;;;;;;;;;;;0.57;78.59;100877.84;5085398;28;20055;-82
2022/02/13 00:27:39;;;;;;;7.95;2.35;;;;;;;0.47;78.79;100866.19;5079116;28;19958;-83
2022/02/13 00:30:07;;;;;;;5.50;2.33;;;;;;;0.52;78.85;100877.28;5074422;28;20174;-81
2022/02/13 00:32:33;;;;;;;8.20;2.75;;;;;;;0.58;78.65;100874.25;5074104;28;20078;-83
2022/02/13 00:34:59;;;;;;;4.88;2.30;;;;;;;0.57;78.51;100872.59;5071834;28;20047;-82
2022/02/13 00:37:24;;;;;;;6.65;2.47;;;;;;;0.51;78.56;100867.72;5083265;28;20052;-83
2022/02/13 00:39:49;;;;;;;7.47;2.55;;;;;;;0.40;78.78;100865.75;5087340;28;20124;-83
2022/02/13 00:42:15;;;;;;;6.60;2.80;;;;;;;0.45;79.04;100889.13;5076447;28;20027;-83
2022/02/13 00:44:40;;;;;;;6.85;2.92;;;;;;;0.53;78.81;100886.84;5071701;28;20759;-80
2022/02/13 00:47:06;;;;;;;7.60;3.83;;;;;;;0.52;78.66;100885.19;5081210;28;20058;-83
2022/02/13 00:49:32;;;;;;;10.23;2.70;;;;;;;0.56;78.45;100877.00;5096565;28;20035;-82
2022/02/13 00:51:57;;;;;;;5.68;2.53;;;;;;;0.53;78.56;100858.78;5083341;28;20028;-82
2022/02/13 00:54:24;;;;;;;6.00;2.50;;;;;;;0.44;78.78;100840.13;5090504;28;20037;-81
2022/02/13 00:56:49;;;;;;;10.83;2.90;;;;;;;0.47;78.91;100867.06;5090351;28;20028;-83
2022/02/13 00:59:15;;;;;;;7.32;2.65;;;;;;;0.52;78.77;100870.25;5085929;28;20035;-83
2022/02/13 01:01:41;;;;;;;;;;;;;;;0.46;78.81;100849.59;5088718;28;20043;-82
2022/02/13 01:04:06;;;;;;;4.88;2.85;;;;;;;0.41;78.81;100842.00;5068668;28;19912;-82
2022/02/13 01:06:32;;;;;;;9.55;2.83;;;;;;;0.54;78.72;100880.66;5073308;28;20094;-82
2022/02/13 01:08:57;;;;;;;10.10;2.80;;;;;;;0.45;78.85;100862.84;5067661;28;20016;-82
2022/02/13 01:11:23;;;;;;;8.18;2.97;;;;;;;0.46;78.96;100878.50;5068520;28;20051;-83
2022/02/13 01:13:48;;;;;;;8.60;2.65;;;;;;;0.40;79.10;100861.34;5068054;28;20044;-82
2022/02/13 01:16:18;;;;;;;6.07;3.30;;;;;;;0.36;79.11;100854.59;5053009;28;20078;-82
2022/02/13 01:18:44;;;;;;;7.68;2.72;;;;;;;0.38;79.27;100881.59;5074530;28;20090;-83
2022/02/13 01:21:12;;;;;;;5.75;2.63;;;;;;;0.39;79.38;100885.06;5059303;28;20032;-83
2022/02/13 01:23:41;;;;;;;8.25;2.95;;;;;;;0.37;79.75;100898.28;5092574;28;20032;-83
2022/02/13 01:26:07;;;;;;;7.85;3.08;;;;;;;0.35;79.60;100879.16;5068407;28;20039;-82
2022/02/13 01:28:34;;;;;;;6.78;2.90;;;;;;;0.40;79.46;100887.59;5077578;28;20029;-83
2022/02/13 01:31:02;;;;;;;9.35;3.67;;;;;;;0.48;79.67;100896.81;5091670;28;20876;-82
2022/02/13 01:33:31;;;;;;;10.13;2.72;;;;;;;0.43;79.49;100881.31;5077515;28;20029;-81
2022/02/13 01:35:57;;;;;;;6.68;2.03;;;;;;;0.34;79.61;100876.63;5087749;28;20477;-84
2022/02/13 01:38:23;;;;;;;7.07;2.50;;;;;;;0.37;79.78;100866.75;5089328;28;20036;-84
2022/02/13 01:40:48;;;;;;;4.40;2.38;;;;;;;0.33;79.91;100875.78;5076159;28;20032;-83
2022/02/13 01:43:14;;;;;;;5.75;2.78;;;;;;;0.46;79.89;100885.53;5074360;28;20032;-83
2022/02/13 01:45:39;;;;;;;9.97;3.13;;;;;;;0.30;79.68;100865.44;5082353;28;20024;-83
2022/02/13 01:48:08;;;;;;;5.80;2.47;;;;;;;0.21;80.24;100855.50;5083773;28;20458;-83
2022/02/13 01:50:37;;;;;;;10.32;3.58;;;;;;;0.24;80.31;100862.38;5089176;28;20063;-83
2022/02/13 01:53:03;;;;;;;6.90;2.83;;;;;;;0.25;80.70;100885.06;5065795;28;20035;-83
2022/02/13 01:55:28;;;;;;;10.05;3.22;;;;;;;0.20;80.99;100901.09;5070424;28;20035;-82
2022/02/13 01:57:55;;;;;;;4.45;2.33;;;;;;;0.17;81.16;100890.78;5069046;28;20085;-84
2022/02/13 02:00:20;;;;;;;5.57;2.55;;;;;;;0.06;81.34;100890.56;5082776;28;20026;-82
2022/02/13 02:02:45;;;;;;;6.10;2.70;;;;;;;0.03;81.81;100898.66;5078913;28;20032;-82
2022/02/13 02:05:11;;;;;;;7.63;3.27;;;;;;;0.06;82.00;100907.16;5073179;28;20055;-82
2022/02/13 02:07:36;;;;;;;7.97;2.53;;;;;;;-0.02;82.10;100901.53;5091212;28;20690;-83
2022/02/13 02:10:03;;;;;;;10.57;2.80;;;;;;;-0.11;82.48;100884.53;5091071;28;20107;-83
2022/02/13 02:12:28;;;;;;;5.45;2.58;;;;;;;0.09;82.69;100924.50;5077831;28;20282;-81
2022/02/13 02:14:54;;;;;;;9.95;3.25;;;;;;;-0.02;82.78;100909.41;5075528;28;20028;-83
2022/02/13 02:17:19;;;;;;;5.40;2.63;;;;;;;0.02;83.03;100923.19;5081077;28;20062;-84
2022/02/13 02:19:45;;;;;;;9.13;3.55;;;;;;;-0.11;83.11;100902.91;5095552;28;20051;-82
2022/02/13 02:22:11;;;;;;;9.50;4.05;;;;;;;-0.20;83.17;100900.84;5093326;28;20103;-83
2022/02/13 02:24:37;;;;;;;9.90;2.70;;;;;;;-0.27;83.56;100907.38;5092123;28;20091;-83
2022/02/13 02:27:03;;;;;;;6.70;2.70;;;;;;;-0.24;83.84;100907.19;5081725;28;20505;-83
2022/02/13 02:29:29;;;;;;;7.18;3.38;;;;;;;-0.12;83.93;100927.47;5076124;28;20013;-83
2022/02/13 02:31:55;;;;;;;10.60;2.85;;;;;;;-0.28;84.12;100905.66;5094964;28;20024;-83
2022/02/13 02:34:20;;;;;;;5.40;2.67;;;;;;;-0.30;84.34;100913.66;5083839;28;20054;-82
2022/02/13 02:36:45;;;;;;;8.80;3.08;;;;;;;-0.23;84.58;100940.38;5073194;28;20024;-81
2022/02/13 02:39:11;;;;;;;13.52;3.35;;;;;;;-0.31;84.94;100914.56;5076741;28;20033;-80
2022/02/13 02:41:37;;;;;;;6.30;3.50;;;;;;;-0.24;84.96;100925.56;5072963;28;20875;-84
2022/02/13 02:44:03;;;;;;;10.98;3.70;;;;;;;-0.26;85.10;100919.53;5072399;28;20023;-81
2022/02/13 02:46:29;;;;;;;9.65;3.53;;;;;;;-0.45;85.17;100901.41;5076555;28;20034;-83
2022/02/13 02:48:54;;;;;;;10.48;3.10;;;;;;;-0.37;85.45;100921.97;5072643;28;20095;-84
2022/02/13 02:51:20;;;;;;;5.80;2.50;;;;;;;-0.40;85.71;100906.38;5090234;28;20032;-81
2022/02/13 02:53:45;;;;;;;8.83;4.63;;;;;;;-0.38;85.83;100910.59;5084710;28;20169;-82
2022/02/13 02:56:11;;;;;;;9.30;3.20;;;;;;;-0.39;85.73;100908.09;5073569;28;20297;-81
2022/02/13 02:58:37;;;;;;;4.28;2.88;;;;;;;-0.41;85.79;100902.91;5079293;28;20029;-82
2022/02/13 03:01:03;;;;;;;;;;;;;;;-0.44;85.93;100890.00;5077939;28;20046;-83
2022/02/13 03:03:29;;;;;;;13.32;3.47;;;;;;;-0.42;86.09;100898.63;5072891;28;19908;-82
2022/02/13 03:05:55;;;;;;;10.77;4.28;;;;;;;-0.45;86.24;100897.00;5090627;28;20043;-80
2022/02/13 03:08:21;;;;;;;5.93;2.60;;;;;;;-0.48;86.43;100889.31;5075477;28;20024;-80
2022/02/13 03:10:47;;;;;;;6.57;3.20;;;;;;;-0.51;86.46;100897.34;5081686;28;20652;-82
2022/02/13 03:13:14;;;;;;;9.20;3.08;;;;;;;-0.59;86.89;100883.81;5073702;28;20177;-84
2022/02/13 03:15:40;;;;;;;6.93;3.38;;;;;;;-0.63;86.85;100879.72;5101833;28;20039;-81
2022/02/13 03:18:05;;;;;;;;;;;;;;;-0.51;87.16;100907.84;5086572;28;20883;-81
2022/02/13 03:20:31;;;;;;;6.60;3.65;;;;;;;-0.57;87.21;100889.00;5094054;28;19923;-81
2022/02/13 03:22:56;;;;;;;9.30;3.35;;;;;;;-0.64;87.46;100888.50;5086379;28;20030;-83
2022/02/13 03:25:21;;;;;;;11.20;2.85;;;;;;;-0.71;87.64;100871.41;5093278;28;20040;-83
2022/02/13 03:27:47;;;;;;;;;;;;;;;-0.57;87.70;100895.06;5073246;28;20115;-83
2022/02/13 03:30:13;;;;;;;7.90;3.22;;;;;;;-0.75;87.80;100876.00;5085383;28;20478;-83
2022/02/13 03:32:38;;;;;;;8.33;3.07;;;;;;;-0.77;87.79;100866.50;5078838;28;20371;-82
2022/02/13 03:35:04;;;;;;;7.30;3.50;;;;;;;-0.69;88.00;100887.91;5083423;28;20275;-83
2022/02/13 03:37:29;;;;;;;10.27;3.50;;;;;;;-0.65;87.98;100886.81;5067151;28;20282;-84
2022/02/13 03:39:55;;;;;;;8.20;3.75;;;;;;;-0.65;87.96;100885.03;5077545;28;20043;-82
2022/02/13 03:42:20;;;;;;;9.98;3.80;;;;;;;-0.66;88.02;100875.50;5073192;28;20126;-81
2022/02/13 03:44:47;;;;;;;9.77;3.27;;;;;;;-0.67;87.92;100865.06;5085951;28;20085;-82
2022/02/13 03:47:13;;;;;;;8.13;3.80;;;;;;;-0.66;88.17;100879.88;5071818;28;20760;-83
2022/02/13 03:49:39;;;;;;;10.00;4.60;;;;;;;-0.73;87.96;100858.38;5079670;28;20029;-83
2022/02/13 03:52:05;;;;;;;11.30;3.35;;;;;;;-0.74;87.97;100845.38;5073618;28;20875;-83
2022/02/13 03:54:30;;;;;;;7.80;3.42;;;;;;;-0.64;88.12;100868.34;5084376;28;20044;-81
2022/02/13 03:56:56;;;;;;;8.98;3.53;;;;;;;-0.65;88.17;100871.09;5074991;28;20036;-83
2022/02/13 03:59:22;;;;;;;8.25;3.58;;;;;;;-0.79;88.13;100845.66;5101112;28;20042;-83
2022/02/13 04:01:47;;;;;;;11.30;4.25;;;;;;;-0.74;87.96;100845.38;5079314;28;20028;-83
2022/02/13 04:04:12;;;;;;;6.82;3.28;;;;;;;-0.68;88.05;100847.63;5073557;28;20043;-82
2022/02/13 04:06:38;;;;;;;7.40;3.23;;;;;;;-0.72;88.10;100841.75;5072816;28;20021;-81
2022/02/13 04:09:03;;;;;;;11.23;4.45;;;;;;;-0.71;88.21;100837.34;5097256;28;20673;-83
2022/02/13 04:11:28;;;;;;;10.35;4.22;;;;;;;-0.76;88.03;100814.00;5073057;28;20035;-82
2022/02/13 04:13:54;;;;;;;10.70;3.78;;;;;;;-0.71;88.13;100829.47;5068776;28;20546;-82
2022/02/13 04:16:19;;;;;;;10.95;4.22;;;;;;;-0.75;88.05;100814.84;5078980;28;20149;-84
2022/02/13 04:18:44;;;;;;;9.18;4.18;;;;;;;-0.70;87.94;100810.19;5076847;28;20077;-84
2022/02/13 04:21:10;;;;;;;10.32;3.45;;;;;;;-0.71;88.00;100811.94;5065983;28;20398;-83
2022/02/13 04:23:35;;;;;;;12.82;4.60;;;;;;;-0.67;87.87;100816.09;5084226;28;20040;-83
2022/02/13 04:26:01;;;;;;;6.38;3.47;;;;;;;-0.60;87.90;100819.22;5082244;28;20063;-83
2022/02/13 04:28:28;;;;;;;11.23;4.20;;;;;;;-0.56;87.80;100827.72;5073713;28;20091;-84
2022/02/13 04:30:53;;;;;;;;;;;;;;;-0.56;87.68;100815.47;5077356;28;20040;-84
2022/02/13 04:33:19;;;;;;;10.35;4.53;;;;;;;-0.53;87.38;100811.84;5075783;28;19920;-84
2022/02/13 04:35:46;;;;;;;12.95;4.65;;;;;;;-0.69;87.35;100777.78;5092025;28;20103;-83
2022/02/13 04:38:11;;;;;;;8.65;3.50;;;;;;;-0.60;87.25;100779.03;5088374;28;20496;-84
2022/02/13 04:40:37;;;;;;;9.02;3.83;;;;;;;-0.59;87.23;100796.44;5070468;28;20039;-83
2022/02/13 04:43:03;;;;;;;9.15;3.33;;;;;;;-0.61;86.91;100779.94;5076560;28;20241;-84
2022/02/13 04:45:28;;;;;;;9.10;4.07;;;;;;;-0.57;86.92;100776.22;5092041;28;20067;-84
2022/02/13 04:47:53;;;;;;;10.13;4.25;;;;;;;-0.52;86.97;100776.78;5086373;28;20028;-84
2022/02/13 04:50:21;;;;;;;9.00;3.47;;;;;;;-0.51;86.90;100771.47;5075591;28;20111;-84
2022/02/13 04:52:54;;;;;;;7.93;4.20;;;;;;;-0.46;86.30;100768.56;5089712;28;20042;-84
2022/02/13 04:55:20;;;;;;;8.10;3.25;;;;;;;-0.32;85.94;100783.50;5075629;28;20135;-82
2022/02/13 04:57:47;;;;;;;9.35;4.10;;;;;;;-0.44;86.06;100749.19;5071089;28;20028;-84
2022/02/13 05:00:14;;;;;;;12.07;5.07;;;;;;;-0.31;85.82;100756.31;5070648;28;20410;-83
2022/02/13 05:02:40;;;;;;;11.45;4.10;;;;;;;-0.36;85.56;100740.00;5054988;28;20558;-84
2022/02/13 05:05:06;;;;;;;;;;;;;;;-0.39;85.72;100738.41;5054209;28;20479;-83
2022/02/13 05:07:31;;;;;;;10.27;4.07;;;;;;;-0.50;85.65;100725.94;5070986;28;19954;-83
2022/02/13 05:09:57;;;;;;;13.63;4.65;;;;;;;-0.48;85.67;100725.84;5070395;28;20032;-84
2022/02/13 05:12:22;;;;;;;12.20;4.17;;;;;;;-0.48;85.70;100726.69;5070817;28;20029;-84
2022/02/13 05:14:48;;;;;;;11.57;4.05;;;;;;;-0.39;85.49;100737.56;5069737;28;20054;-83
2022/02/13 05:17:14;;;;;;;6.13;3.03;;;;;;;-0.39;85.53;100734.94;5054065;28;20052;-84
2022/02/13 05:19:39;;;;;;;10.48;4.07;;;;;;;-0.43;85.64;100729.88;5053257;28;20041;-83
2022/02/13 05:22:05;;;;;;;9.68;3.90;;;;;;;-0.51;85.77;100716.38;5085045;28;20043;-82
2022/02/13 05:24:35;;;;;;;6.18;3.75;;;;;;;-0.49;85.76;100718.94;5074195;28;20084;-81
2022/02/13 05:27:01;;;;;;;9.35;4.68;;;;;;;-0.41;85.62;100715.84;5079470;28;20496;-83
2022/02/13 05:29:27;;;;;;;8.75;3.70;;;;;;;-0.43;85.42;100711.50;5068003;28;20020;-83
2022/02/13 05:31:52;;;;;;;10.77;4.63;;;;;;;-0.47;85.51;100712.66;5072060;28;20036;-81
2022/02/13 05:34:18;;;;;;;7.40;3.80;;;;;;;-0.46;85.25;100698.59;5075807;28;20036;-83
2022/02/13 05:36:43;;;;;;;8.05;4.50;;;;;;;-0.45;85.46;100695.00;5096997;28;20118;-84
2022/02/13 05:39:09;;;;;;;8.63;3.40;;;;;;;-0.51;85.47;100698.03;5072776;28;20055;-84
2022/02/13 05:41:35;;;;;;;10.00;4.43;;;;;;;-0.46;85.28;100692.50;5075883;28;20033;-80
2022/02/13 05:44:00;;;;;;;9.60;4.47;;;;;;;-0.44;85.31;100704.59;5079950;28;20449;-82
2022/02/13 05:46:26;;;;;;;9.15;3.58;;;;;;;-0.50;85.42;100691.84;5075337;28;20523;-84
2022/02/13 05:48:52;;;;;;;10.15;4.43;;;;;;;-0.50;85.56;100691.00;5072131;28;20020;-82
2022/02/13 05:51:17;;;;;;;;;;;;;;;-0.45;85.56;100718.63;5072729;28;20424;-83
2022/02/13 05:53:43;;;;;;;11.90;3.80;;;;;;;-0.51;85.43;100687.53;5061987;28;19912;-82
2022/02/13 05:56:09;;;;;;;8.88;3.80;;;;;;;-0.40;85.19;100715.72;5079647;28;20036;-82
2022/02/13 05:58:38;;;;;;;9.15;4.50;;;;;;;-0.42;85.18;100704.50;5072392;28;21000;-82
2022/02/13 06:01:03;;;;;;;11.95;4.63;;;;;;;-0.51;85.36;100695.41;5070186;28;20470;-83
2022/02/13 06:03:29;;;;;;;13.02;4.85;;;;;;;-0.49;85.32;100688.28;5084187;28;20028;-81
2022/02/13 06:05:54;;;;;;;13.18;5.07;;;;;;;-0.57;85.28;100674.78;5076129;28;20033;-83
2022/02/13 06:08:19;;;;;;;13.40;4.80;;;;;;;-0.59;84.94;100663.53;5082173;28;20529;-83
2022/02/13 06:10:45;;;;;;;11.70;4.77;;;;;;;-0.52;85.11;100682.38;5077932;28;20344;-83
2022/02/13 06:13:11;;;;;;;13.43;3.87;;;;;;;-0.61;85.21;100669.81;5066278;28;20361;-82
2022/02/13 06:15:36;;;;;;;;;;;;;;;-0.44;85.28;100701.97;5087611;28;20064;-83
2022/02/13 06:18:02;;;;;;;14.88;4.53;;;;;;;-0.45;85.18;100700.25;5102721;28;19952;-83
2022/02/13 06:20:27;;;;;;;9.77;5.07;;;;;;;-0.59;85.28;100676.66;5096851;28;20389;-83
2022/02/13 06:22:52;;;;;;;12.30;4.80;;;;;;;-0.57;85.52;100685.28;5074910;28;20040;-84
2022/02/13 06:25:18;;;;;;;12.77;4.53;;;;;;;-0.55;85.51;100667.66;5072615;28;20041;-83
2022/02/13 06:27:43;;;;;;;17.20;6.30;;;;;;;-0.49;85.34;100682.22;5070753;28;20021;-83
2022/02/13 06:30:09;;;;;;;8.80;4.53;;;;;;;-0.47;85.54;100677.69;5070612;28;20089;-82
2022/02/13 06:32:35;;;;;;;9.07;4.45;;;;;;;-0.51;85.22;100663.94;5054075;28;20793;-80
2022/02/13 06:35:00;;;;;;;11.18;4.20;;;;;;;-0.51;85.38;100665.72;5075816;28;20040;-82
2022/02/13 06:37:25;;;;;;;10.40;4.80;;;;;;;-0.51;85.23;100669.19;5106936;28;20031;-83
2022/02/13 06:39:51;;;;;;;8.65;4.05;;;;;;;-0.49;85.04;100675.19;5081992;28;20293;-83
2022/02/13 06:42:16;;;;;;;14.18;5.03;;;;;;;-0.57;84.83;100643.31;5074627;28;20020;-82
2022/02/13 06:44:43;;;;;;;18.63;7.10;;;;;;;-0.36;84.59;100667.38;5086972;28;20031;-81
2022/02/13 06:47:11;;;;;;;8.00;4.60;;;;;;;-0.35;84.39;100655.97;5082390;28;20036;-83
2022/02/13 06:49:40;;;;;;;11.27;5.55;;;;;;;-0.47;84.37;100620.84;5071454;28;20066;-81
2022/02/13 06:52:05;;;;;;;13.25;4.70;;;;;;;-0.46;84.20;100609.41;5081909;28;20025;-81
2022/02/13 06:54:31;;;;;;;11.85;4.53;;;;;;;-0.48;84.08;100599.94;5065760;28;20033;-82
2022/02/13 06:56:56;;;;;;;9.52;4.70;;;;;;;-0.39;83.90;100607.25;5067967;28;20024;-83
2022/02/13 06:59:22;;;;;;;12.45;5.82;;;;;;;-0.37;83.58;100601.91;5073976;28;20036;-83
2022/02/13 07:01:47;;;;;;;9.98;5.50;;;;;;;-0.36;83.53;100582.59;5068605;28;20028;-83
2022/02/13 07:04:13;;;;;;;11.23;5.20;;;;;;;-0.47;83.51;100564.91;5077238;28;20055;-82
2022/02/13 07:06:38;;;;;;;12.00;4.18;;;;;;;-0.40;83.21;100571.44;5105434;28;20089;-83
2022/02/13 07:09:06;;;;;;;12.88;4.07;;;;;;;-0.35;82.97;100569.41;5075764;28;20766;-82
2022/02/13 07:11:31;;;;;;;12.63;4.40;;;;;;;-0.33;82.84;100546.53;5091952;28;20078;-84
2022/02/13 07:13:57;;;;;;;9.90;4.40;;;;;;;-0.32;82.65;100544.75;5072686;28;20498;-82
2022/02/13 07:16:22;;;;;;;10.13;4.13;;;;;;;-0.26;82.38;100542.59;5075620;28;20361;-83
2022/02/13 07:18:47;;;;;;;8.10;4.25;;;;;;;-0.26;82.12;100537.34;5101788;28;20643;-82
2022/02/13 07:21:13;;;;;;;11.40;4.15;;;;;;;-0.25;81.98;100540.78;5082456;28;20027;-83
2022/02/13 07:23:38;;;;;;;10.97;4.50;;;;;;;-0.29;82.15;100516.53;5094719;28;20066;-82
2022/02/13 07:26:03;;;;;;;11.17;5.10;;;;;;;-0.25;81.75;100504.06;5093581;28;20269;-82
2022/02/13 07:31:13;;;;;;;12.25;4.20;;;;;;;-0.06;81.08;100506.34;5110187;28;20055;-83
2022/02/13 07:33:38;;;;;;;10.93;4.17;;;;;;;0.03;80.78;100507.53;5092283;28;20133;-82
2022/02/13 07:36:04;;;;;;;16.17;6.55;;;;;;;-0.08;80.53;100472.31;5109463;28;20080;-81
2022/02/13 07:38:29;;;;;;;13.43;4.65;;;;;;;0.01;80.22;100475.28;5091986;28;20039;-82
2022/02/13 07:40:54;;;;;;;10.93;4.43;;;;;;;-0.01;80.01;100451.75;5109819;28;20504;-81
2022/02/13 07:43:20;;;;;;;10.00;5.60;;;;;;;0.02;79.77;100432.31;5091856;28;20273;-81
2022/02/13 07:45:45;;;;;;;10.43;4.17;;;;;;;0.18;79.76;100451.34;5111342;28;20762;-81
2022/02/13 07:48:11;;;;;;;12.40;5.60;;;;;;;0.21;79.42;100427.50;5111293;28;20406;-82
2022/02/13 07:50:37;;;;;;;12.00;5.47;;;;;;;0.16;79.08;100406.84;5095182;28;20273;-82
2022/02/13 07:53:02;;;;;;;;;;;;;;;0.33;78.76;100412.75;5094578;28;20059;-82
2022/02/13 07:55:29;;;;;;;9.35;4.13;;;;;;;0.37;78.44;100409.75;5093051;28;19912;-83
2022/02/13 07:57:55;;;;;;;10.50;4.88;;;;;;;0.39;77.97;100371.09;5109793;28;20038;-80
2022/02/13 08:00:20;;;;;;;10.75;4.50;;;;;;;0.41;77.63;100350.84;5109188;28;20039;-80
2022/02/13 08:02:46;;;;;;;14.02;4.95;;;;;;;0.65;77.35;100373.69;5109347;28;20062;-82
2022/02/13 08:05:11;;;;;;;10.00;4.25;;;;;;;0.64;76.69;100348.41;5091427;28;20031;-81
2022/02/13 08:07:46;;;;;;;13.47;5.20;;;;;;;0.84;76.23;100339.94;5108653;28;20063;-82
2022/02/13 08:10:13;;;;;;;8.65;4.45;;;;;;;0.97;75.73;100333.78;5107712;28;20282;-81
2022/02/13 08:12:38;;;;;;;10.90;4.15;;;;;;;0.91;75.39;100297.41;5110553;28;20493;-81
2022/02/13 08:15:04;;;;;;;13.83;5.07;;;;;;;1.18;74.92;100313.81;5110287;28;20085;-82
2022/02/13 08:17:29;;;;;;;10.07;4.40;;;;;;;1.28;74.04;100282.41;5094014;28;20039;-82
2022/02/13 08:19:55;;;;;;;6.50;3.65;;;;;;;1.35;73.67;100259.13;5109463;28;20035;-80
2022/02/13 08:22:20;;;;;;;11.73;4.53;;;;;;;1.48;73.16;100246.72;5094045;28;20533;-80
2022/02/13 08:24:46;;;;;;;10.23;4.37;;;;;;;1.62;72.40;100217.56;5110764;28;20316;-82
2022/02/13 08:27:12;;;;;;;7.32;3.83;;;;;;;1.60;72.27;100184.44;5094131;28;20030;-81
2022/02/13 08:29:37;;;;;;;11.23;4.10;;;;;;;1.37;72.09;100139.69;5111392;28;20031;-81
2022/02/13 08:32:03;;;;;;;11.90;4.77;;;;;;;1.38;72.09;100162.41;5110287;28;20027;-82
2022/02/13 08:34:28;;;;;;;6.90;4.60;;;;;;;1.60;72.21;100189.69;5092828;28;20438;-80
2022/02/13 08:36:53;;;;;;;9.50;4.85;;;;;;;1.66;71.90;100169.03;5093669;28;20676;-81
2022/02/13 08:39:19;;;;;;;10.52;4.93;;;;;;;2.07;71.29;100199.13;5110109;28;20039;-81
2022/02/13 08:41:44;;;;;;;9.13;4.40;;;;;;;2.81;70.13;100224.88;5096737;28;20138;-81
2022/02/13 08:44:10;;;;;;;8.13;4.33;;;;;;;3.02;68.72;100132.59;5104741;28;20429;-80
2022/02/13 08:46:36;;;;;;;12.20;5.80;;;;;;;3.06;67.41;100025.03;5092931;28;20035;-80
2022/02/13 08:49:02;;;;;;;7.97;4.75;;;;;;;3.48;66.40;100019.63;5084019;28;20078;-81
2022/02/13 08:51:28;;;;;;;9.50;5.45;;;;;;;3.42;65.21;99933.06;5069725;28;20038;-81
2022/02/13 08:53:54;;;;;;;9.20;4.40;;;;;;;3.55;64.64;99909.91;5084761;28;20111;-80
2022/02/13 08:56:19;;;;;;;9.17;4.70;;;;;;;3.68;64.57;99930.78;5068737;28;20063;-81
2022/02/13 08:58:44;;;;;;;9.50;4.93;;;;;;;3.86;63.94;99923.81;5069889;28;20282;-81
2022/02/13 09:01:10;;;;;;;7.80;4.80;;;;;;;3.60;63.74;99849.63;5069530;28;20032;-81
2022/02/13 09:03:35;;;;;;;8.98;4.43;;;;;;;2.77;64.71;99806.09;5083503;28;20102;-80
2022/02/13 09:06:01;;;;;;;5.45;3.70;;;;;;;2.43;65.55;99830.94;5083110;28;20029;-81
2022/02/13 09:08:26;;;;;;;10.43;4.10;;;;;;;2.73;65.78;99916.22;5077714;28;20479;-81
2022/02/13 09:10:52;;;;;;;9.77;4.57;;;;;;;3.26;65.41;99981.94;5074607;28;20715;-81
2022/02/13 09:13:17;;;;;;;9.85;4.85;;;;;;;2.79;65.26;99863.00;5108158;28;20032;-81
2022/02/13 09:15:43;;;;;;;12.67;5.23;;;;;;;2.85;65.32;99907.25;5105538;28;20134;-81
2022/02/13 09:18:13;;;;;;;12.07;4.60;;;;;;;2.66;66.00;99872.91;5106565;28;20031;-81
2022/02/13 09:20:44;;;;;;;9.13;4.43;;;;;;;2.27;66.49;99854.28;5089380;28;20110;-81
2022/02/13 09:23:10;;;;;;;9.15;4.75;;;;;;;2.53;66.95;99957.47;5089951;28;20070;-79
2022/02/13 09:25:36;;;;;;;10.13;4.72;;;;;;;2.44;67.07;99959.09;5107675;28;20043;-80
2022/02/13 09:28:01;;;;;;;10.20;4.63;;;;;;;2.39;67.38;99977.09;5106647;28;20031;-81
2022/02/13 09:30:27;;;;;;;11.73;4.78;;;;;;;2.59;67.41;100022.00;5091658;28;20023;-80
2022/02/13 09:32:53;;;;;;;12.90;4.93;;;;;;;2.42;67.71;99991.78;5091329;28;20092;-81
2022/02/13 09:35:18;;;;;;;10.82;4.50;;;;;;;2.33;67.85;99969.69;5090799;28;20031;-80
2022/02/13 09:37:44;;;;;;;9.20;4.68;;;;;;;2.39;67.77;99987.63;5109406;28;20039;-81
2022/02/13 09:40:10;;;;;;;11.50;4.40;;;;;;;2.38;67.98;100007.00;5095229;28;20054;-79
2022/02/13 09:42:37;;;;;;;10.23;4.28;;;;;;;2.60;67.82;100039.47;5112014;28;20042;-79
2022/02/13 09:45:02;;;;;;;11.73;4.97;;;;;;;2.58;67.55;100013.25;5112830;28;20019;-81
2022/02/13 09:47:28;;;;;;;9.70;5.47;;;;;;;2.58;67.40;99999.25;5111917;28;20374;-80
2022/02/13 09:49:54;;;;;;;9.10;4.50;;;;;;;2.51;67.48;99970.78;5094555;28;20035;-81
2022/02/13 09:52:19;;;;;;;8.53;4.33;;;;;;;2.67;66.94;99956.28;5113288;28;20038;-79
2022/02/13 09:54:45;;;;;;;14.45;5.72;;;;;;;2.74;66.90;99968.00;5110891;28;20300;-79
2022/02/13 10:00:11;;;;;;;9.95;4.30;;;;;;;2.98;65.68;99914.94;5032522;28;20044;-81
2022/02/13 10:02:42;;;;;;;12.95;4.97;;;;;;;3.15;65.81;99960.94;5098930;28;20032;-80
2022/02/13 10:05:13;;;;;;;8.90;4.45;;;;;;;3.18;65.23;99899.97;5112685;28;20058;-80
2022/02/13 10:07:39;;;;;;;8.82;4.22;;;;;;;3.17;65.30;99922.06;5111060;28;20114;-81
2022/02/13 10:10:08;;;;;;;10.02;4.00;;;;;;;3.64;64.54;99953.97;5111254;28;20482;-78
2022/02/13 10:12:42;;;;;;;6.80;4.68;;;;;;;3.24;64.25;99825.59;5094932;28;20043;-81
2022/02/13 10:15:30;;;;;;;7.10;4.18;;;;;;;3.31;64.07;99837.25;5093886;28;20098;-81
2022/02/13 10:18:03;;;;;;;7.57;4.78;;;;;;;3.69;63.77;99885.75;5110518;28;20489;-79
2022/02/13 10:20:28;;;;;;;6.97;3.58;;;;;;;3.74;63.20;99835.97;5110989;28;20035;-80
2022/02/13 10:22:54;;;;;;;7.17;4.60;;;;;;;4.40;62.62;99935.59;5111568;28;20030;-79
2022/02/13 10:25:19;;;;;;;10.50;4.22;;;;;;;4.43;61.65;99797.03;5110167;28;20035;-81
2022/02/13 10:27:49;;;;;;;5.90;3.45;;;;;;;4.94;60.96;99859.13;5093428;28;20039;-79
2022/02/13 10:30:34;;;;;;;10.27;4.32;;;;;;;4.46;60.45;99648.72;5110316;28;20030;-80
2022/02/13 10:33:19;;;;;;;9.55;4.20;;;;;;;4.38;60.83;99704.13;5111376;28;20039;-79
2022/02/13 10:36:11;;;;;;;11.23;5.35;;;;;;;3.75;61.77;99687.19;5108939;28;20066;-78
2022/02/13 10:38:39;;;;;;;7.53;3.90;;;;;;;3.57;62.10;99710.84;5093969;28;20097;-79
2022/02/13 10:41:16;;;;;;;6.70;4.15;;;;;;;3.73;62.54;99776.25;5112385;28;20267;-80
2022/02/13 10:44:06;;;;;;;9.38;4.03;;;;;;;3.62;62.53;99765.03;5111611;28;20031;-79
2022/02/13 10:46:34;;;;;;;11.15;4.80;;;;;;;3.87;62.82;99853.38;5110091;28;20110;-78
2022/02/13 10:49:00;;;;;;;6.55;3.72;;;;;;;4.36;61.96;99867.31;5092520;28;20032;-80
2022/02/13 10:51:26;;;;;;;;;;;;;;;4.19;61.82;99806.31;5110444;28;20036;-79
2022/02/13 10:53:53;;;;;;;7.75;4.82;;;;;;;4.12;61.60;99773.50;5109143;28;19914;-79
2022/02/13 10:56:19;;;;;;;8.23;4.38;;;;;;;4.16;61.32;99759.00;5109302;28;20451;-78
2022/02/13 10:58:45;;;;;;;10.07;4.63;;;;;;;4.13;61.38;99738.19;5111757;28;20035;-79
2022/02/13 11:01:12;;;;;;;13.48;5.22;;;;;;;4.18;61.27;99741.22;5092912;28;20019;-79
2022/02/13 11:03:37;;;;;;;7.95;4.03;;;;;;;4.24;61.62;99790.00;5109607;28;20032;-78
2022/02/13 11:06:05;;;;;;;8.15;4.13;;;;;;;4.27;61.52;99758.00;5109173;28;20154;-79
2022/02/13 11:08:53;;;;;;;6.80;3.53;;;;;;;5.10;60.89;99889.38;5109223;28;20063;-79
2022/02/13 11:11:19;;;;;;;7.65;3.90;;;;;;;4.79;60.01;99683.41;5091753;28;20100;-77
2022/02/13 11:13:46;;;;;;;7.03;3.53;;;;;;;4.84;60.00;99681.13;5107953;28;20040;-78
2022/02/13 11:16:35;;;;;;;7.22;4.20;;;;;;;4.89;59.61;99662.97;5100091;28;20028;-79
2022/02/13 11:19:12;;;;;;;11.55;4.43;;;;;;;5.18;59.45;99691.00;5093559;28;20454;-80
2022/02/13 11:21:38;;;;;;;12.10;4.30;;;;;;;5.12;59.08;99628.94;5110376;28;20039;-79
2022/02/13 11:24:05;;;;;;;8.50;4.97;;;;;;;5.40;58.87;99679.91;5109812;28;20031;-78
2022/02/13 11:26:41;;;;;;;8.70;4.38;;;;;;;5.93;58.37;99737.19;5110674;28;20396;-80
2022/02/13 11:29:12;;;;;;;8.50;3.95;;;;;;;6.09;57.55;99664.09;5092019;28;20027;-79
2022/02/13 11:31:42;;;;;;;9.55;3.92;;;;;;;6.33;57.14;99658.88;5091694;28;20051;-78
2022/02/13 11:34:32;;;;;;;11.18;4.20;;;;;;;7.04;56.39;99717.66;5109646;28;20111;-79